Forside
METAR-TAF:

METAR-TAF

Lufthavne :

Kristiansand Lufthavn. Kjevik

Kristiansand, Norge

Breddekreds: 58-12N, længdekreds: 008-05E, højde: 1 m

Aktuelle vejr

Denne rapport blev lavet for 36 minutter siden, kl. 21:20 UTC
Vind 2 kt fra øst
Temperatur 4°C
Fugtighed 75%
Tryk 1013 hPa
Sigt 10 km eller mere
Nogle få skyer i en højde af 4800 ft

METAR: ENCN 192120Z 08002KT 9999 FEW048 04/00 Q1013

Tid: 23:56 (21:56 UTC)

Vejrudsigter

Denne rapport blev lavet for 7 timer og 56 minutter siden, kl. 14:00 UTC
Foreløbig gælder fra 19 på 15 UTC til 19 på 22 UTC
Vind 8 kt fra nordøst
Sigt 10 km eller mere
Nogle få skyer i en højde af 2000 ft
Brudte skyer i en højde af 4000 ft

TAF: ENCN 191400Z 1915/1922 04008KT 9999 FEW020 BKN040

Vejrobservationer og prognoser fra mere end 4000 lufthavne (METAR og TAF).

De gule og røde prikker repræsenterer de meteorologiske stationer.

Flyt musen over at se navnet på stationen.

Så klik over at se vejr observationer og prognoser.

At skifte det kort: Klik på de grønne knapper med et sort kors for at zoome ind; på den grønne knap med en bindestreg for at zoome ud; eller på de grønne pile for tilstødende kort.


METAR-TAF: